createdAt,value
2017-08-31T00:00:52.026Z,90.80
2017-08-31T00:03:20.290Z,90.50
2017-08-31T00:05:48.526Z,91.10
2017-08-31T00:08:16.786Z,91.20
2017-08-31T00:10:45.051Z,91.10
2017-08-31T00:13:14.182Z,91.20
2017-08-31T00:15:42.438Z,91.40
2017-08-31T00:18:10.901Z,91.30
2017-08-31T00:20:39.158Z,91.00
2017-08-31T00:23:07.455Z,90.80
2017-08-31T00:25:35.683Z,90.80
2017-08-31T00:28:03.926Z,90.70
2017-08-31T00:30:32.546Z,90.90
2017-08-31T00:33:01.578Z,90.70
2017-08-31T00:35:29.810Z,90.70
2017-08-31T00:37:58.061Z,90.80
2017-08-31T00:40:26.358Z,91.00
2017-08-31T00:42:54.611Z,91.10
2017-08-31T00:45:22.863Z,91.10
2017-08-31T00:47:51.161Z,91.10
2017-08-31T00:50:19.426Z,91.10
2017-08-31T00:52:47.730Z,90.90
2017-08-31T00:55:16.002Z,91.00
2017-08-31T00:57:44.280Z,90.90
2017-08-31T01:00:12.562Z,91.00
2017-08-31T01:02:40.849Z,90.90
2017-08-31T01:05:09.127Z,91.10
2017-08-31T01:07:37.387Z,91.00
2017-08-31T01:10:05.654Z,90.70
2017-08-31T01:12:33.912Z,90.70
2017-08-31T01:15:02.206Z,90.70
2017-08-31T01:17:30.446Z,90.90
2017-08-31T01:19:58.708Z,90.80
2017-08-31T01:22:27.022Z,90.90
2017-08-31T01:24:55.294Z,90.80
2017-08-31T01:27:23.609Z,90.60
2017-08-31T01:29:51.893Z,90.40
2017-08-31T01:32:20.156Z,90.40
2017-08-31T01:34:48.443Z,90.50
2017-08-31T01:37:16.709Z,90.10
2017-08-31T01:39:44.968Z,90.00
2017-08-31T01:42:13.205Z,90.10
2017-08-31T01:44:41.507Z,89.80
2017-08-31T01:47:09.807Z,89.20
2017-08-31T01:49:38.053Z,89.00
2017-08-31T01:52:06.335Z,89.20
2017-08-31T01:54:34.602Z,89.80
2017-08-31T01:57:02.871Z,90.20
2017-08-31T01:59:31.122Z,89.60
2017-08-31T02:01:59.362Z,89.50
2017-08-31T02:04:27.670Z,89.30
2017-08-31T02:06:55.928Z,89.70
2017-08-31T02:09:24.514Z,90.00
2017-08-31T02:11:52.783Z,90.20
2017-08-31T02:14:21.014Z,90.00
2017-08-31T02:16:49.284Z,90.00
2017-08-31T02:19:18.289Z,89.40
2017-08-31T02:21:46.564Z,89.40
2017-08-31T02:24:14.840Z,89.30
2017-08-31T02:26:43.126Z,89.40
2017-08-31T02:29:11.369Z,89.40
2017-08-31T02:31:39.698Z,89.70
2017-08-31T02:34:07.968Z,90.20
2017-08-31T02:36:36.274Z,90.60
2017-08-31T02:39:04.575Z,90.50
2017-08-31T02:41:32.806Z,90.70
2017-08-31T02:44:01.083Z,90.90
2017-08-31T02:46:29.362Z,91.20
2017-08-31T02:48:57.605Z,91.10
2017-08-31T02:51:25.892Z,91.20
2017-08-31T02:53:54.154Z,91.10
2017-08-31T02:56:22.391Z,90.90
2017-08-31T02:58:50.650Z,91.00
2017-08-31T03:01:19.524Z,90.80
2017-08-31T03:03:47.766Z,91.00
2017-08-31T03:06:16.034Z,90.80
2017-08-31T03:08:45.045Z,90.60
2017-08-31T03:11:13.883Z,90.30
2017-08-31T03:13:42.106Z,90.40
2017-08-31T03:16:10.395Z,90.40
2017-08-31T03:18:38.675Z,90.50
2017-08-31T03:21:06.945Z,90.50
2017-08-31T03:23:35.193Z,90.40
2017-08-31T03:26:03.445Z,90.20
2017-08-31T03:28:31.687Z,90.00
2017-08-31T03:30:59.968Z,90.00
2017-08-31T03:33:28.188Z,89.60
2017-08-31T03:35:56.457Z,90.10
2017-08-31T03:38:24.677Z,90.30
2017-08-31T03:40:52.936Z,90.30
2017-08-31T03:43:21.232Z,90.40
2017-08-31T03:45:49.434Z,90.80
2017-08-31T03:48:17.688Z,90.40
2017-08-31T03:50:45.952Z,90.90
2017-08-31T03:53:14.252Z,91.30
2017-08-31T03:55:42.470Z,91.50
2017-08-31T03:58:10.715Z,91.70
2017-08-31T04:00:39.003Z,91.10
2017-08-31T04:03:07.247Z,91.60
2017-08-31T04:05:35.515Z,91.30
2017-08-31T04:08:03.800Z,91.30
2017-08-31T04:10:32.188Z,91.40
2017-08-31T04:13:00.399Z,91.60
2017-08-31T04:15:28.697Z,91.50
2017-08-31T04:17:56.955Z,91.40
2017-08-31T04:20:25.235Z,91.50
2017-08-31T04:22:53.474Z,91.70
2017-08-31T04:25:21.742Z,91.70
2017-08-31T04:27:50.126Z,91.70
2017-08-31T04:30:18.367Z,91.60
2017-08-31T04:32:46.680Z,91.50
2017-08-31T04:35:14.943Z,91.30
2017-08-31T04:37:43.201Z,90.60
2017-08-31T04:40:11.449Z,90.60
2017-08-31T04:42:39.705Z,90.50
2017-08-31T04:45:07.972Z,90.70
2017-08-31T04:47:36.254Z,90.80
2017-08-31T04:50:04.501Z,91.00
2017-08-31T04:52:32.742Z,91.00
2017-08-31T04:55:00.998Z,91.30
2017-08-31T04:57:29.274Z,91.90
2017-08-31T04:59:57.503Z,92.20
2017-08-31T05:02:25.756Z,92.90
2017-08-31T05:04:54.029Z,92.60
2017-08-31T05:07:22.256Z,92.60
2017-08-31T05:09:50.528Z,92.60
2017-08-31T05:12:18.783Z,92.40
2017-08-31T05:14:47.064Z,92.50
2017-08-31T05:17:15.326Z,92.00
2017-08-31T05:19:43.629Z,92.20
2017-08-31T05:22:12.360Z,91.90
2017-08-31T05:24:40.607Z,91.80
2017-08-31T05:27:08.869Z,91.50
2017-08-31T05:29:37.349Z,90.90
2017-08-31T05:32:05.585Z,91.20
2017-08-31T05:34:33.871Z,91.30
2017-08-31T05:37:02.495Z,91.50
2017-08-31T05:39:30.753Z,91.40
2017-08-31T05:41:59.046Z,91.30
2017-08-31T05:44:27.315Z,91.10
2017-08-31T05:46:55.586Z,91.10
2017-08-31T05:49:23.869Z,91.60
2017-08-31T05:51:52.134Z,91.20
2017-08-31T05:54:20.378Z,91.40
2017-08-31T05:56:48.611Z,91.20
2017-08-31T05:59:16.874Z,91.40
2017-08-31T06:01:45.128Z,91.30
2017-08-31T06:04:13.392Z,91.30
2017-08-31T06:06:41.673Z,91.40
2017-08-31T06:09:09.941Z,91.30
2017-08-31T06:11:38.230Z,91.10
2017-08-31T06:14:06.482Z,91.40
2017-08-31T06:16:34.721Z,91.40
2017-08-31T06:19:02.966Z,91.30
2017-08-31T06:21:31.226Z,90.80
2017-08-31T06:23:59.502Z,91.50
2017-08-31T06:26:28.231Z,90.90
2017-08-31T06:28:56.482Z,90.70
2017-08-31T06:31:24.745Z,90.40
2017-08-31T06:33:52.977Z,91.20
2017-08-31T06:36:21.267Z,90.90
2017-08-31T06:38:49.526Z,90.70
2017-08-31T06:41:17.754Z,91.10
2017-08-31T06:43:45.994Z,90.70
2017-08-31T06:46:14.258Z,91.00
2017-08-31T06:48:42.502Z,91.20
2017-08-31T06:51:10.712Z,91.50
2017-08-31T06:53:38.970Z,90.50
2017-08-31T06:56:07.210Z,90.80
2017-08-31T06:58:35.483Z,90.60
2017-08-31T07:01:03.744Z,90.80
2017-08-31T07:03:32.745Z,91.30
2017-08-31T07:06:01.062Z,91.30
2017-08-31T07:08:29.272Z,90.70
2017-08-31T07:10:57.523Z,90.10
2017-08-31T07:13:25.775Z,90.30
2017-08-31T07:15:54.054Z,90.30
2017-08-31T07:18:22.316Z,90.70
2017-08-31T07:20:50.611Z,90.60
2017-08-31T07:23:18.848Z,90.40
2017-08-31T07:25:47.105Z,91.00
2017-08-31T07:28:15.377Z,91.20
2017-08-31T07:30:43.649Z,90.30
2017-08-31T07:33:11.887Z,90.80
2017-08-31T07:35:40.195Z,90.70
2017-08-31T07:38:08.430Z,91.50
2017-08-31T07:40:36.698Z,90.60
2017-08-31T07:43:04.980Z,90.10
2017-08-31T07:45:33.226Z,90.70
2017-08-31T07:48:01.465Z,90.40
2017-08-31T07:50:29.719Z,90.10
2017-08-31T07:52:57.990Z,90.20
2017-08-31T07:55:26.240Z,90.80
2017-08-31T07:57:54.458Z,91.00
2017-08-31T08:00:22.716Z,90.90
2017-08-31T08:02:50.962Z,90.80
2017-08-31T08:05:19.254Z,90.60
2017-08-31T08:07:47.473Z,90.80
2017-08-31T08:10:15.724Z,90.40
2017-08-31T08:12:44.736Z,90.40
2017-08-31T08:15:13.005Z,90.40
2017-08-31T08:17:41.259Z,90.50
2017-08-31T08:20:09.496Z,89.80
2017-08-31T08:22:37.756Z,89.80
2017-08-31T08:25:06.003Z,89.60
2017-08-31T08:27:34.242Z,90.20
2017-08-31T08:30:02.498Z,89.90
2017-08-31T08:32:30.710Z,89.10
2017-08-31T08:34:59.047Z,89.20
2017-08-31T08:37:27.255Z,90.40
2017-08-31T08:39:55.493Z,90.00
2017-08-31T08:42:23.774Z,89.30
2017-08-31T08:44:52.015Z,89.10
2017-08-31T08:47:20.274Z,90.10
2017-08-31T08:49:48.533Z,89.50
2017-08-31T08:52:16.806Z,90.20
2017-08-31T08:54:45.033Z,89.60
2017-08-31T08:57:13.346Z,89.70
2017-08-31T08:59:41.591Z,88.40
2017-08-31T09:02:09.801Z,90.10
2017-08-31T09:04:38.064Z,87.70
2017-08-31T09:07:06.375Z,88.00
2017-08-31T09:09:34.598Z,89.30
2017-08-31T09:12:02.872Z,88.20
2017-08-31T09:14:31.127Z,87.10
2017-08-31T09:16:59.341Z,86.40
2017-08-31T09:19:27.596Z,87.80
2017-08-31T09:21:55.838Z,86.60
2017-08-31T09:24:24.113Z,86.20
2017-08-31T09:26:52.360Z,87.20
2017-08-31T09:29:20.662Z,86.80
2017-08-31T09:31:48.896Z,87.90
2017-08-31T09:34:17.149Z,84.80
2017-08-31T09:36:45.390Z,84.80
2017-08-31T09:39:13.636Z,85.10
2017-08-31T09:41:41.902Z,86.00
2017-08-31T09:44:10.154Z,87.70
2017-08-31T09:46:38.389Z,86.70
2017-08-31T09:49:06.668Z,85.80
2017-08-31T09:51:34.907Z,84.90
2017-08-31T09:54:03.177Z,86.80
2017-08-31T09:56:31.447Z,83.90
2017-08-31T09:58:59.682Z,85.90
2017-08-31T10:01:27.920Z,85.20
2017-08-31T10:03:56.179Z,83.70
2017-08-31T10:06:24.467Z,84.90
2017-08-31T10:08:52.718Z,85.20
2017-08-31T10:11:20.961Z,84.70
2017-08-31T10:13:49.254Z,85.10
2017-08-31T10:16:17.514Z,84.20
2017-08-31T10:18:45.775Z,83.80
2017-08-31T10:21:14.014Z,83.10
2017-08-31T10:23:42.269Z,84.50
2017-08-31T10:26:10.526Z,84.10
2017-08-31T10:28:38.784Z,81.90
2017-08-31T10:31:07.049Z,82.90
2017-08-31T10:33:35.298Z,83.10
2017-08-31T10:36:03.554Z,83.10
2017-08-31T10:38:31.798Z,82.90
2017-08-31T10:41:00.096Z,82.30
2017-08-31T10:43:28.350Z,84.90
2017-08-31T10:45:56.620Z,81.60
2017-08-31T10:48:24.901Z,82.70
2017-08-31T10:50:53.157Z,84.10
2017-08-31T10:53:21.466Z,83.00
2017-08-31T10:55:49.701Z,82.70
2017-08-31T10:58:17.985Z,84.00
2017-08-31T11:00:46.217Z,81.80
2017-08-31T11:03:14.482Z,83.20
2017-08-31T11:05:42.729Z,83.20
2017-08-31T11:08:11.012Z,83.50
2017-08-31T11:10:39.224Z,83.40
2017-08-31T11:13:07.508Z,84.70
2017-08-31T11:15:35.744Z,81.10
2017-08-31T11:18:04.032Z,80.40
2017-08-31T11:20:32.284Z,82.50
2017-08-31T11:23:00.560Z,80.90
2017-08-31T11:25:28.832Z,79.00
2017-08-31T11:27:57.204Z,80.10
2017-08-31T11:30:25.550Z,76.90
2017-08-31T11:32:53.778Z,78.20
2017-08-31T11:35:22.802Z,79.40
2017-08-31T11:37:51.027Z,78.60
2017-08-31T11:40:19.287Z,75.80
2017-08-31T11:42:47.560Z,76.70
2017-08-31T11:45:15.827Z,77.20
2017-08-31T11:47:44.107Z,78.50
2017-08-31T11:50:12.326Z,76.30
2017-08-31T11:52:40.595Z,76.20
2017-08-31T11:55:08.879Z,75.70
2017-08-31T11:57:37.160Z,76.70
2017-08-31T12:00:05.405Z,78.10
2017-08-31T12:02:34.417Z,81.00
2017-08-31T12:05:02.659Z,81.00
2017-08-31T12:07:30.899Z,82.50
2017-08-31T12:09:59.178Z,84.10
2017-08-31T12:12:27.458Z,84.70
2017-08-31T12:14:55.702Z,84.90
2017-08-31T12:17:23.977Z,84.40
2017-08-31T12:19:52.998Z,85.30
2017-08-31T12:22:21.227Z,85.40
2017-08-31T12:24:49.498Z,85.20
2017-08-31T12:27:17.768Z,84.40
2017-08-31T12:29:46.007Z,85.30
2017-08-31T12:32:14.318Z,83.50
2017-08-31T12:34:42.585Z,83.30
2017-08-31T12:37:10.825Z,85.30
2017-08-31T12:39:39.065Z,83.40
2017-08-31T12:42:07.318Z,85.10
2017-08-31T12:44:35.627Z,85.10
2017-08-31T12:47:03.874Z,83.70
2017-08-31T12:49:32.138Z,84.20
2017-08-31T12:52:03.004Z,84.20
2017-08-31T12:54:31.227Z,84.30
2017-08-31T12:56:59.515Z,85.20
2017-08-31T12:59:27.783Z,84.80
2017-08-31T13:01:56.070Z,84.80
2017-08-31T13:04:24.330Z,84.40
2017-08-31T13:06:52.607Z,84.90
2017-08-31T13:09:20.846Z,85.10
2017-08-31T13:11:49.128Z,86.10
2017-08-31T13:14:17.395Z,85.10
2017-08-31T13:16:45.632Z,86.10
2017-08-31T13:19:13.894Z,84.70
2017-08-31T13:21:42.157Z,85.30
2017-08-31T13:24:10.422Z,84.60
2017-08-31T13:26:38.691Z,85.30
2017-08-31T13:29:06.947Z,84.20
2017-08-31T13:31:35.200Z,84.80
2017-08-31T13:34:03.435Z,85.20
2017-08-31T13:36:33.469Z,84.40
2017-08-31T13:39:01.770Z,83.70
2017-08-31T13:41:40.023Z,81.90
2017-08-31T13:44:08.254Z,81.40
2017-08-31T13:46:36.528Z,80.80
2017-08-31T13:49:04.807Z,80.70
2017-08-31T13:51:33.038Z,79.90
2017-08-31T13:54:01.325Z,79.50
2017-08-31T13:56:29.603Z,78.80
2017-08-31T13:58:57.861Z,79.60
2017-08-31T14:01:26.222Z,76.50
2017-08-31T14:03:54.458Z,75.60
2017-08-31T14:06:22.733Z,75.50
2017-08-31T14:08:50.980Z,75.90
2017-08-31T14:11:19.258Z,74.90
2017-08-31T14:13:47.513Z,73.40
2017-08-31T14:16:15.783Z,74.50
2017-08-31T14:18:44.031Z,75.70
2017-08-31T14:21:12.278Z,76.30
2017-08-31T14:23:40.608Z,76.40
2017-08-31T14:26:08.828Z,76.80
2017-08-31T14:28:37.113Z,75.70
2017-08-31T14:31:05.376Z,75.20
2017-08-31T14:33:33.623Z,75.00
2017-08-31T14:36:01.866Z,72.50
2017-08-31T14:38:30.130Z,73.50
2017-08-31T14:40:58.422Z,74.30
2017-08-31T14:43:27.040Z,73.70
2017-08-31T14:45:55.255Z,74.80
2017-08-31T14:48:23.563Z,76.10
2017-08-31T14:50:51.856Z,74.30
2017-08-31T14:53:20.199Z,74.90
2017-08-31T14:55:48.487Z,75.20
2017-08-31T14:58:16.730Z,75.30
2017-08-31T15:00:44.987Z,76.10
2017-08-31T15:03:14.037Z,75.00
2017-08-31T15:05:42.306Z,75.00
2017-08-31T15:08:10.578Z,73.60
2017-08-31T15:10:38.839Z,73.70
2017-08-31T15:13:07.115Z,74.40
2017-08-31T15:15:35.379Z,73.40
2017-08-31T15:18:04.763Z,73.70
2017-08-31T15:20:32.999Z,73.60
2017-08-31T15:23:01.236Z,72.10
2017-08-31T15:25:29.497Z,72.90
2017-08-31T15:27:57.754Z,71.60
2017-08-31T15:30:26.173Z,72.10
2017-08-31T15:32:55.237Z,73.50
2017-08-31T15:35:23.490Z,73.20
2017-08-31T15:37:51.757Z,73.50
2017-08-31T15:40:20.619Z,74.30
2017-08-31T15:42:48.882Z,73.40
2017-08-31T15:45:17.162Z,72.60
2017-08-31T15:47:45.429Z,73.20
2017-08-31T15:50:13.685Z,73.10
2017-08-31T15:52:41.962Z,73.10
2017-08-31T15:55:10.223Z,73.10
2017-08-31T15:57:38.579Z,74.20
2017-08-31T16:00:06.903Z,75.70
2017-08-31T16:02:35.210Z,73.90
2017-08-31T16:05:04.243Z,77.00
2017-08-31T16:07:32.698Z,77.00
2017-08-31T16:10:01.778Z,78.80
2017-08-31T16:12:30.071Z,77.30
2017-08-31T16:14:58.340Z,78.40
2017-08-31T16:17:26.628Z,77.40
2017-08-31T16:19:54.954Z,78.40
2017-08-31T16:22:23.291Z,78.70
2017-08-31T16:24:51.630Z,77.60
2017-08-31T16:27:19.851Z,78.90
2017-08-31T16:29:48.191Z,78.50
2017-08-31T16:32:16.462Z,78.10
2017-08-31T16:34:44.770Z,77.60
2017-08-31T16:37:13.120Z,78.30
2017-08-31T16:39:41.382Z,77.20
2017-08-31T16:42:09.710Z,76.30
2017-08-31T16:44:37.971Z,76.30
2017-08-31T16:47:06.221Z,76.20
2017-08-31T16:49:34.514Z,74.50
2017-08-31T16:52:02.807Z,74.40
2017-08-31T16:54:31.268Z,73.20
2017-08-31T16:56:59.518Z,71.60
2017-08-31T16:59:27.799Z,71.80
2017-08-31T17:01:56.085Z,74.10
2017-08-31T17:04:24.346Z,72.50
2017-08-31T17:06:52.683Z,74.70
2017-08-31T17:09:20.923Z,75.10
2017-08-31T17:11:49.204Z,74.50
2017-08-31T17:14:17.462Z,73.70
2017-08-31T17:16:45.735Z,72.90
2017-08-31T17:19:14.010Z,75.20
2017-08-31T17:21:42.287Z,74.40
2017-08-31T17:24:10.574Z,74.30
2017-08-31T17:26:38.848Z,75.50
2017-08-31T17:29:07.136Z,75.60
2017-08-31T17:31:35.416Z,77.20
2017-08-31T17:34:03.766Z,78.30
2017-08-31T17:36:32.035Z,78.70
2017-08-31T17:39:00.310Z,79.20
2017-08-31T17:41:28.580Z,79.30
2017-08-31T17:43:56.850Z,79.40
2017-08-31T17:46:25.100Z,79.90
2017-08-31T17:48:53.426Z,80.00
2017-08-31T17:51:21.665Z,81.20
2017-08-31T17:53:49.967Z,82.00
2017-08-31T17:56:18.231Z,81.90
2017-08-31T17:58:46.493Z,81.10
2017-08-31T18:01:14.724Z,81.70
2017-08-31T18:03:43.060Z,81.80
2017-08-31T18:06:11.298Z,82.10
2017-08-31T18:08:40.704Z,82.90
2017-08-31T18:11:08.980Z,82.10
2017-08-31T18:13:37.290Z,82.10
2017-08-31T18:16:05.560Z,82.30
2017-08-31T18:18:34.015Z,83.00
2017-08-31T18:21:02.292Z,83.40
2017-08-31T18:23:30.638Z,84.10
2017-08-31T18:25:58.966Z,84.70
2017-08-31T18:28:27.293Z,85.60
2017-08-31T18:30:55.572Z,86.40
2017-08-31T18:33:24.203Z,86.50
2017-08-31T18:35:52.501Z,86.90
2017-08-31T18:38:20.750Z,86.40
2017-08-31T18:40:49.048Z,86.40
2017-08-31T18:43:18.104Z,86.20
2017-08-31T18:45:46.398Z,86.20
2017-08-31T18:48:14.718Z,86.70
2017-08-31T18:50:43.024Z,86.90
2017-08-31T18:53:11.753Z,87.50
2017-08-31T18:55:40.000Z,87.80
2017-08-31T18:58:08.313Z,87.80
2017-08-31T19:00:36.656Z,87.80
2017-08-31T19:03:04.953Z,87.70
2017-08-31T19:05:33.316Z,87.80
2017-08-31T19:08:01.612Z,88.10
2017-08-31T19:10:29.935Z,88.10
2017-08-31T19:12:58.212Z,88.20
2017-08-31T19:15:26.522Z,87.80
2017-08-31T19:17:54.808Z,87.70
2017-08-31T19:20:23.095Z,88.10
2017-08-31T19:22:51.411Z,88.50
2017-08-31T19:25:19.735Z,89.10
2017-08-31T19:27:48.039Z,88.80
2017-08-31T19:30:16.366Z,89.20
2017-08-31T19:32:44.621Z,89.00
2017-08-31T19:35:12.945Z,88.70
2017-08-31T19:37:41.862Z,88.30
2017-08-31T19:40:10.256Z,88.30
2017-08-31T19:42:39.353Z,88.80
2017-08-31T19:45:07.668Z,88.80
2017-08-31T19:47:36.027Z,88.90
2017-08-31T19:50:04.306Z,89.30
2017-08-31T19:52:32.981Z,89.30
2017-08-31T19:55:01.235Z,89.20
2017-08-31T19:57:29.525Z,89.20
2017-08-31T19:59:58.276Z,89.20
2017-08-31T20:02:26.535Z,89.60
2017-08-31T20:04:54.825Z,89.40
2017-08-31T20:07:23.116Z,89.40
2017-08-31T20:09:51.422Z,89.60
2017-08-31T20:12:19.716Z,89.70
2017-08-31T20:14:47.998Z,89.50
2017-08-31T20:17:16.880Z,89.60
2017-08-31T20:19:45.145Z,89.50
2017-08-31T20:22:14.445Z,89.60
2017-08-31T20:24:42.748Z,89.50
2017-08-31T20:27:11.024Z,89.40
2017-08-31T20:29:39.306Z,89.50
2017-08-31T20:32:07.565Z,89.70
2017-08-31T20:34:35.843Z,89.90
2017-08-31T20:37:04.123Z,90.00
2017-08-31T20:39:32.514Z,89.80
2017-08-31T20:42:00.783Z,89.90
2017-08-31T20:44:29.105Z,89.80
2017-08-31T20:46:57.630Z,89.80
2017-08-31T20:49:25.929Z,89.90
2017-08-31T20:51:54.210Z,89.80
2017-08-31T20:54:22.519Z,90.00
2017-08-31T20:56:50.842Z,90.00
2017-08-31T20:59:19.136Z,89.40
2017-08-31T21:01:47.420Z,89.50
2017-08-31T21:04:15.797Z,89.40
2017-08-31T21:06:44.108Z,89.40
2017-08-31T21:09:12.394Z,89.50
2017-08-31T21:11:40.630Z,89.40
2017-08-31T21:14:08.927Z,89.30
2017-08-31T21:16:37.206Z,89.70
2017-08-31T21:19:05.453Z,89.60
2017-08-31T21:21:34.116Z,89.70
2017-08-31T21:24:02.355Z,89.80
2017-08-31T21:26:30.645Z,89.80
2017-08-31T21:28:58.919Z,89.40
2017-08-31T21:31:27.183Z,89.50
2017-08-31T21:33:55.448Z,89.50
2017-08-31T21:36:24.482Z,89.40
2017-08-31T21:38:52.741Z,89.30
2017-08-31T21:41:21.783Z,89.30
2017-08-31T21:43:50.092Z,89.10
2017-08-31T21:46:18.371Z,89.10
2017-08-31T21:48:46.685Z,88.90
2017-08-31T21:51:14.960Z,88.30
2017-08-31T21:53:43.201Z,88.10
2017-08-31T21:56:11.480Z,88.10
2017-08-31T21:58:39.725Z,88.20
2017-08-31T22:01:08.005Z,88.20
2017-08-31T22:03:36.282Z,88.00
2017-08-31T22:06:04.542Z,87.90
2017-08-31T22:08:32.832Z,88.10
2017-08-31T22:11:01.072Z,87.80
2017-08-31T22:13:29.383Z,88.10
2017-08-31T22:15:57.627Z,88.40
2017-08-31T22:18:25.884Z,88.60
2017-08-31T22:20:54.146Z,88.50
2017-08-31T22:23:22.452Z,88.10
2017-08-31T22:25:51.486Z,88.20
2017-08-31T22:28:19.729Z,88.40
2017-08-31T22:30:48.015Z,87.90
2017-08-31T22:33:16.263Z,88.00
2017-08-31T22:35:44.532Z,87.80
2017-08-31T22:38:12.782Z,87.90
2017-08-31T22:40:41.380Z,87.90
2017-08-31T22:43:09.687Z,88.10
2017-08-31T22:45:37.933Z,88.30
2017-08-31T22:48:07.001Z,88.00
2017-08-31T22:50:35.264Z,87.90
2017-08-31T22:53:03.505Z,88.10
2017-08-31T22:55:31.801Z,88.60
2017-08-31T22:58:11.914Z,88.30
2017-08-31T23:00:40.202Z,88.30
2017-08-31T23:03:08.483Z,87.50
2017-08-31T23:05:36.777Z,87.50
2017-08-31T23:08:05.015Z,87.80
2017-08-31T23:10:33.292Z,87.40
2017-08-31T23:13:01.518Z,88.20
2017-08-31T23:15:29.791Z,88.70
2017-08-31T23:17:58.074Z,88.60
2017-08-31T23:20:26.404Z,88.10
2017-08-31T23:22:54.664Z,88.70
2017-08-31T23:25:22.893Z,88.40
2017-08-31T23:27:51.171Z,88.10
2017-08-31T23:30:19.432Z,86.90
2017-08-31T23:32:47.689Z,87.10
2017-08-31T23:35:15.960Z,87.10
2017-08-31T23:37:44.218Z,87.50
2017-08-31T23:40:12.514Z,87.40
2017-08-31T23:42:40.788Z,87.80
2017-08-31T23:45:09.083Z,87.70
2017-08-31T23:47:37.303Z,87.40
2017-08-31T23:50:05.550Z,87.50
2017-08-31T23:52:33.859Z,87.00
2017-08-31T23:55:02.104Z,87.50
2017-08-31T23:57:30.349Z,87.70
2017-08-31T23:59:58.616Z,87.30
